Augusta Springs, Virginia
Current Conditions -  °F | °C
As of 12:15 AM on Wednesday 26 Nov 2014 (Local Time) from KW13 Reporting Station
Broken Clouds Broken Clouds  
Wind Chill: 41°   Ceiling: 12000
Heat Index: 41°   Visibility: 10mi
Dew Point: 30°   Wind: 0mph
Humidity: 65%   Direction: NA
Pressure: 30.11"   Gusts: NA
Location:  38.1°N, 79.32°W
Report Text: KW13 260515Z AUTO 00000KT 10SM BKN120 05/M01 A3011 RMK AO1 T00501010
Loading
Personal Weather Stations






























Interactive Weather Map New forecast layout! Learn more

10-Day Weather Forecast

Advertisements
Track Severe Weather on mobile